createdAt,value
2022-12-31T00:02:00.575Z,27.08
2022-12-31T00:05:22.776Z,26.88
2022-12-31T00:08:46.151Z,28.27
2022-12-31T00:12:08.073Z,25.02
2022-12-31T00:15:30.076Z,25.73
2022-12-31T00:18:54.975Z,26.73
2022-12-31T00:22:16.928Z,25.17
2022-12-31T00:25:38.889Z,26.10
2022-12-31T00:29:01.763Z,25.42
2022-12-31T00:32:23.767Z,27.27
2022-12-31T00:35:45.695Z,25.02
2022-12-31T00:39:08.690Z,25.83
2022-12-31T00:42:30.980Z,26.75
2022-12-31T00:45:52.977Z,25.83
2022-12-31T00:49:15.483Z,25.38
2022-12-31T00:52:37.560Z,23.63
2022-12-31T00:56:04.802Z,26.00
2022-12-31T00:59:26.783Z,25.60
2022-12-31T01:02:48.985Z,24.90
2022-12-31T01:06:11.233Z,26.92
2022-12-31T01:09:33.171Z,25.05
2022-12-31T01:12:55.070Z,26.15
2022-12-31T01:16:18.335Z,26.67
2022-12-31T01:19:40.259Z,26.55
2022-12-31T01:23:02.207Z,27.25
2022-12-31T01:26:24.217Z,26.83
2022-12-31T01:29:46.694Z,25.75
2022-12-31T01:33:08.682Z,27.40
2022-12-31T01:36:32.707Z,26.27
2022-12-31T01:39:54.655Z,25.75
2022-12-31T01:43:20.685Z,26.23
2022-12-31T01:46:54.693Z,26.92
2022-12-31T01:50:29.306Z,24.33
2022-12-31T01:53:52.028Z,26.98
2022-12-31T01:57:15.887Z,25.23
2022-12-31T02:00:38.213Z,24.73
2022-12-31T02:04:09.585Z,24.02
2022-12-31T02:07:31.777Z,24.13
2022-12-31T02:10:53.718Z,23.17
2022-12-31T02:14:28.699Z,20.63
2022-12-31T02:18:09.993Z,22.70
2022-12-31T02:21:54.368Z,21.40
2022-12-31T02:25:24.959Z,23.10
2022-12-31T02:29:01.001Z,20.83
2022-12-31T02:32:34.923Z,20.45
2022-12-31T02:36:13.439Z,21.80
2022-12-31T02:39:36.309Z,19.13
2022-12-31T02:42:58.275Z,20.95
2022-12-31T02:46:44.654Z,19.70
2022-12-31T02:50:38.966Z,19.27
2022-12-31T02:54:03.656Z,19.67
2022-12-31T02:57:34.228Z,18.77
2022-12-31T03:01:16.587Z,19.00
2022-12-31T03:04:39.547Z,20.80
2022-12-31T03:08:01.504Z,22.23
2022-12-31T03:11:42.239Z,18.10
2022-12-31T03:15:06.808Z,20.08
2022-12-31T03:18:54.843Z,19.17
2022-12-31T03:22:30.179Z,17.55
2022-12-31T03:25:53.439Z,17.52
2022-12-31T03:29:16.479Z,16.63
2022-12-31T03:32:38.651Z,15.63
2022-12-31T03:36:05.062Z,15.30
2022-12-31T03:39:26.993Z,16.13
2022-12-31T03:42:49.901Z,14.68
2022-12-31T03:46:11.863Z,15.90
2022-12-31T03:49:34.786Z,15.05
2022-12-31T03:52:57.025Z,14.57
2022-12-31T03:56:18.946Z,14.40
2022-12-31T03:59:40.914Z,16.58
2022-12-31T04:03:02.861Z,15.57
2022-12-31T04:06:25.405Z,15.40
2022-12-31T04:09:47.382Z,14.25
2022-12-31T04:13:09.349Z,15.32
2022-12-31T04:16:32.394Z,16.73
2022-12-31T04:19:54.648Z,17.33
2022-12-31T04:23:16.865Z,18.48
2022-12-31T04:26:39.057Z,18.88
2022-12-31T04:30:01.068Z,16.75
2022-12-31T04:33:22.995Z,18.30
2022-12-31T04:36:44.939Z,18.30
2022-12-31T04:40:08.743Z,18.80
2022-12-31T04:43:33.587Z,19.65
2022-12-31T04:46:56.163Z,18.50
2022-12-31T04:50:18.260Z,18.25
2022-12-31T04:53:40.594Z,19.70
2022-12-31T04:57:03.680Z,19.08
2022-12-31T05:00:25.775Z,18.42
2022-12-31T05:03:48.450Z,19.27
2022-12-31T05:07:10.437Z,18.70
2022-12-31T05:10:32.365Z,18.70
2022-12-31T05:13:54.340Z,17.38
2022-12-31T05:17:16.313Z,16.20
2022-12-31T05:20:38.377Z,15.75
2022-12-31T05:24:00.332Z,17.90
2022-12-31T05:27:23.028Z,15.80
2022-12-31T05:30:47.644Z,15.23
2022-12-31T05:34:09.626Z,14.98
2022-12-31T05:37:31.962Z,15.82
2022-12-31T05:41:05.699Z,15.52
2022-12-31T05:44:27.896Z,16.58
2022-12-31T05:47:50.123Z,17.80
2022-12-31T05:51:12.274Z,18.52
2022-12-31T05:54:34.668Z,17.50
2022-12-31T05:57:56.604Z,17.50
2022-12-31T06:01:18.617Z,18.65
2022-12-31T06:04:40.723Z,18.65
2022-12-31T06:08:02.759Z,20.95
2022-12-31T06:11:24.903Z,19.77
2022-12-31T06:14:46.920Z,22.20
2022-12-31T06:18:08.864Z,20.48
2022-12-31T06:21:30.978Z,21.88
2022-12-31T06:24:53.255Z,21.42
2022-12-31T06:28:20.184Z,20.10
2022-12-31T06:31:42.560Z,20.45
2022-12-31T06:35:05.134Z,21.63
2022-12-31T06:38:28.803Z,21.48
2022-12-31T06:41:50.750Z,20.25
2022-12-31T06:45:12.731Z,21.30
2022-12-31T06:48:34.976Z,21.42
2022-12-31T06:51:56.921Z,21.88
2022-12-31T06:55:19.252Z,21.35
2022-12-31T06:58:41.715Z,23.05
2022-12-31T07:02:51.503Z,22.35
2022-12-31T07:06:38.969Z,24.35
2022-12-31T07:10:24.118Z,24.90
2022-12-31T07:13:55.857Z,34.28
2022-12-31T07:17:35.163Z,24.70
2022-12-31T07:20:57.372Z,49.03
2022-12-31T07:24:19.699Z,31.27
2022-12-31T07:28:18.338Z,28.50
2022-12-31T07:31:52.007Z,31.25
2022-12-31T07:35:50.568Z,33.13
2022-12-31T07:39:20.739Z,48.90
2022-12-31T07:47:05.922Z,30.65
2022-12-31T07:50:28.169Z,26.48
2022-12-31T07:53:50.265Z,24.67
2022-12-31T07:57:14.160Z,24.88
2022-12-31T08:00:36.212Z,23.90
2022-12-31T08:04:00.898Z,26.10
2022-12-31T08:07:54.679Z,25.23
2022-12-31T08:11:52.371Z,21.48
2022-12-31T08:15:19.052Z,22.00
2022-12-31T08:18:41.294Z,21.92
2022-12-31T08:22:06.082Z,22.67
2022-12-31T08:25:46.977Z,24.10
2022-12-31T08:29:14.835Z,22.25
2022-12-31T08:32:53.610Z,23.10
2022-12-31T08:36:20.494Z,24.05
2022-12-31T08:40:10.278Z,23.88
2022-12-31T08:43:48.156Z,24.35
2022-12-31T08:47:38.768Z,22.75
2022-12-31T08:51:01.212Z,23.67
2022-12-31T08:54:23.429Z,21.02
2022-12-31T08:57:57.279Z,22.65
2022-12-31T09:01:25.167Z,25.02
2022-12-31T09:05:14.489Z,23.02
2022-12-31T09:09:06.218Z,24.15
2022-12-31T09:12:42.275Z,24.13
2022-12-31T09:16:31.212Z,25.08
2022-12-31T09:19:53.672Z,25.50
2022-12-31T09:23:15.906Z,22.27
2022-12-31T09:27:03.347Z,24.38
2022-12-31T09:30:28.717Z,23.92
2022-12-31T09:34:03.441Z,23.65
2022-12-31T09:37:39.453Z,22.48
2022-12-31T09:41:14.526Z,21.15
2022-12-31T09:44:36.530Z,21.70
2022-12-31T09:48:30.985Z,21.55
2022-12-31T09:52:18.669Z,22.27
2022-12-31T09:55:52.333Z,22.08
2022-12-31T09:59:20.623Z,22.17
2022-12-31T10:03:19.787Z,21.80
2022-12-31T10:07:18.766Z,21.13
2022-12-31T10:10:53.885Z,20.77
2022-12-31T10:14:34.035Z,20.30
2022-12-31T10:18:23.315Z,21.50
2022-12-31T10:22:04.092Z,24.02
2022-12-31T10:29:23.236Z,23.45
2022-12-31T10:33:06.025Z,22.52
2022-12-31T10:36:36.449Z,21.50
2022-12-31T10:40:26.327Z,22.30
2022-12-31T10:44:31.101Z,21.00
2022-12-31T10:48:02.175Z,21.83
2022-12-31T10:51:56.465Z,21.10
2022-12-31T10:55:55.631Z,21.33
2022-12-31T10:59:59.795Z,23.67
2022-12-31T11:03:49.766Z,23.80
2022-12-31T11:07:19.986Z,22.77
2022-12-31T11:10:56.998Z,23.65
2022-12-31T11:14:43.360Z,24.30
2022-12-31T11:18:34.549Z,23.05
2022-12-31T11:22:21.039Z,23.15
2022-12-31T11:25:54.841Z,20.48
2022-12-31T11:29:48.615Z,20.95
2022-12-31T11:33:28.255Z,21.80
2022-12-31T11:37:15.841Z,22.63
2022-12-31T11:41:07.665Z,21.08
2022-12-31T11:44:55.050Z,21.40
2022-12-31T11:48:34.782Z,21.13
2022-12-31T11:52:24.257Z,20.98
2022-12-31T11:56:18.231Z,22.50
2022-12-31T11:59:40.319Z,23.13
2022-12-31T12:03:06.294Z,21.95
2022-12-31T12:06:33.261Z,21.85
2022-12-31T12:09:56.465Z,21.83
2022-12-31T12:13:26.010Z,22.88
2022-12-31T12:17:02.453Z,21.75
2022-12-31T12:20:36.185Z,21.63
2022-12-31T12:23:58.053Z,21.73
2022-12-31T12:27:27.588Z,23.95
2022-12-31T12:30:59.336Z,21.60
2022-12-31T12:34:33.841Z,24.58
2022-12-31T12:38:03.092Z,22.70
2022-12-31T12:41:26.564Z,22.92
2022-12-31T12:44:48.571Z,23.02
2022-12-31T12:48:25.070Z,22.65
2022-12-31T12:51:59.643Z,22.98
2022-12-31T12:55:36.842Z,22.75
2022-12-31T12:59:17.379Z,21.48
2022-12-31T13:03:21.926Z,20.98
2022-12-31T13:06:59.079Z,21.23
2022-12-31T13:10:26.623Z,19.38
2022-12-31T13:14:17.104Z,21.35
2022-12-31T13:17:56.154Z,19.92
2022-12-31T13:21:35.761Z,20.25
2022-12-31T13:25:26.452Z,18.77
2022-12-31T13:28:52.337Z,19.40
2022-12-31T13:32:34.003Z,20.25
2022-12-31T13:36:02.119Z,20.27
2022-12-31T13:39:29.980Z,20.92
2022-12-31T13:43:08.112Z,19.05
2022-12-31T13:46:57.781Z,19.88
2022-12-31T13:50:29.726Z,19.55
2022-12-31T13:54:01.925Z,19.63
2022-12-31T13:57:45.375Z,20.50
2022-12-31T14:01:12.225Z,18.70
2022-12-31T14:04:39.359Z,19.15
2022-12-31T14:08:03.197Z,18.60
2022-12-31T14:11:27.827Z,20.83
2022-12-31T14:15:26.480Z,20.85
2022-12-31T14:18:51.371Z,20.13
2022-12-31T14:22:25.550Z,18.85
2022-12-31T14:25:58.571Z,21.08
2022-12-31T14:29:59.016Z,21.45
2022-12-31T14:33:29.841Z,19.88
2022-12-31T14:37:10.642Z,19.92
2022-12-31T14:44:24.253Z,17.83
2022-12-31T14:48:10.846Z,21.95
2022-12-31T14:51:35.724Z,20.73
2022-12-31T14:55:00.117Z,21.20
2022-12-31T14:58:35.724Z,21.02
2022-12-31T15:01:59.232Z,21.13
2022-12-31T15:05:24.984Z,19.58
2022-12-31T15:09:08.165Z,20.38
2022-12-31T15:13:16.087Z,20.10
2022-12-31T15:16:47.344Z,21.63
2022-12-31T15:20:51.403Z,19.30
2022-12-31T15:24:18.284Z,20.38
2022-12-31T15:27:44.021Z,20.30
2022-12-31T15:31:19.045Z,20.15
2022-12-31T15:34:41.751Z,19.95
2022-12-31T15:38:15.812Z,20.65
2022-12-31T15:42:10.333Z,21.60
2022-12-31T15:45:54.243Z,20.77
2022-12-31T15:49:20.717Z,20.83
2022-12-31T15:52:48.045Z,22.17
2022-12-31T15:56:19.207Z,22.30
2022-12-31T15:59:41.235Z,25.27
2022-12-31T16:03:03.428Z,24.85
2022-12-31T16:06:29.384Z,25.70
2022-12-31T16:09:57.559Z,24.98
2022-12-31T16:13:25.283Z,23.65
2022-12-31T16:16:58.947Z,24.13
2022-12-31T16:20:26.070Z,25.33
2022-12-31T16:23:53.154Z,25.23
2022-12-31T16:27:17.367Z,25.48
2022-12-31T16:30:40.505Z,25.20
2022-12-31T16:34:10.376Z,24.85
2022-12-31T16:37:32.371Z,24.70
2022-12-31T16:41:03.133Z,26.95
2022-12-31T16:44:28.686Z,24.50
2022-12-31T16:47:50.685Z,27.35
2022-12-31T16:51:19.565Z,25.75
2022-12-31T16:54:46.883Z,27.65
2022-12-31T16:58:19.227Z,27.08
2022-12-31T17:01:42.624Z,28.63
2022-12-31T17:05:05.427Z,27.38
2022-12-31T17:08:38.867Z,27.88
2022-12-31T17:12:16.745Z,27.70
2022-12-31T17:15:43.882Z,34.20
2022-12-31T17:19:06.326Z,37.95
2022-12-31T17:22:37.272Z,33.78
2022-12-31T17:26:13.500Z,31.85
2022-12-31T17:29:35.892Z,31.60
2022-12-31T17:33:07.925Z,29.85
2022-12-31T17:36:29.954Z,32.03
2022-12-31T17:39:54.088Z,29.10
2022-12-31T17:43:17.804Z,32.28
2022-12-31T17:46:40.390Z,31.65
2022-12-31T17:50:23.746Z,28.23
2022-12-31T17:53:45.842Z,27.27
2022-12-31T17:57:17.550Z,25.73
2022-12-31T18:00:39.685Z,26.48
2022-12-31T18:04:01.627Z,25.98
2022-12-31T18:07:24.765Z,26.95
2022-12-31T18:10:46.899Z,28.42
2022-12-31T18:14:10.597Z,27.17
2022-12-31T18:17:35.658Z,25.70
2022-12-31T18:21:06.067Z,27.58
2022-12-31T18:24:27.986Z,28.23
2022-12-31T18:27:51.055Z,29.67
2022-12-31T18:31:22.148Z,32.17
2022-12-31T18:34:44.197Z,31.25
2022-12-31T18:38:13.789Z,31.25
2022-12-31T18:41:46.989Z,34.15
2022-12-31T18:45:20.243Z,34.38
2022-12-31T18:48:42.521Z,32.13
2022-12-31T18:52:04.570Z,30.45
2022-12-31T18:55:31.394Z,30.98
2022-12-31T18:58:53.720Z,30.10
2022-12-31T19:02:19.255Z,30.27
2022-12-31T19:05:42.007Z,32.55
2022-12-31T19:09:17.942Z,33.17
2022-12-31T19:12:47.097Z,33.85
2022-12-31T19:16:10.492Z,41.47
2022-12-31T19:19:32.580Z,43.50
2022-12-31T19:22:54.758Z,44.30
2022-12-31T19:26:19.453Z,44.75
2022-12-31T19:29:41.378Z,59.08
2022-12-31T19:33:03.359Z,48.20
2022-12-31T19:36:25.357Z,43.60
2022-12-31T19:39:47.308Z,41.17
2022-12-31T19:43:14.278Z,37.70
2022-12-31T19:46:36.291Z,35.85
2022-12-31T19:49:58.215Z,32.38
2022-12-31T19:53:26.308Z,30.60
2022-12-31T19:56:48.283Z,30.83
2022-12-31T20:00:11.914Z,29.67
2022-12-31T20:03:34.057Z,30.95
2022-12-31T20:06:56.010Z,31.40
2022-12-31T20:10:18.126Z,32.55
2022-12-31T20:13:41.261Z,33.55
2022-12-31T20:17:03.300Z,33.85
2022-12-31T20:20:26.674Z,31.63
2022-12-31T20:23:49.798Z,31.17
2022-12-31T20:27:18.075Z,30.13
2022-12-31T20:30:40.539Z,30.88
2022-12-31T20:34:02.498Z,32.65
2022-12-31T20:37:24.528Z,30.70
2022-12-31T20:40:47.259Z,33.10
2022-12-31T20:44:09.481Z,30.63
2022-12-31T20:47:31.453Z,31.15
2022-12-31T20:50:59.452Z,32.20
2022-12-31T20:54:21.627Z,30.48
2022-12-31T20:57:43.832Z,30.30
2022-12-31T21:01:07.450Z,31.83
2022-12-31T21:04:29.788Z,31.35
2022-12-31T21:07:52.264Z,31.38
2022-12-31T21:11:33.824Z,31.10
2022-12-31T21:14:56.055Z,29.33
2022-12-31T21:18:18.485Z,27.75
2022-12-31T21:21:40.417Z,30.40
2022-12-31T21:25:03.184Z,32.63
2022-12-31T21:28:25.799Z,33.33
2022-12-31T21:31:47.829Z,30.42
2022-12-31T21:38:51.759Z,27.15
2022-12-31T21:42:14.444Z,25.83
2022-12-31T21:45:36.407Z,23.58
2022-12-31T21:48:59.724Z,24.48
2022-12-31T21:52:27.834Z,24.17
2022-12-31T21:56:10.593Z,22.70
2022-12-31T22:00:16.178Z,22.35
2022-12-31T22:03:33.134Z,23.95
2022-12-31T22:06:55.123Z,23.20
2022-12-31T22:10:17.019Z,23.42
2022-12-31T22:13:39.471Z,23.95
2022-12-31T22:17:01.585Z,24.33
2022-12-31T22:20:28.018Z,28.35
2022-12-31T22:23:53.844Z,29.67
2022-12-31T22:27:28.366Z,35.40
2022-12-31T22:30:51.827Z,40.80
2022-12-31T22:34:13.773Z,32.33
2022-12-31T22:37:56.362Z,25.80
2022-12-31T22:41:22.667Z,25.95
2022-12-31T22:44:44.733Z,26.55
2022-12-31T22:48:06.692Z,29.65
2022-12-31T22:51:56.360Z,32.10
2022-12-31T22:55:12.163Z,30.02
2022-12-31T22:58:34.404Z,31.05
2022-12-31T23:01:56.331Z,32.78
2022-12-31T23:05:18.252Z,31.35
2022-12-31T23:08:40.485Z,32.65
2022-12-31T23:12:03.793Z,29.73
2022-12-31T23:15:44.451Z,74.20
2022-12-31T23:19:25.441Z,44.67
2022-12-31T23:23:06.743Z,79.32
2022-12-31T23:26:28.658Z,79.00
2022-12-31T23:29:50.760Z,63.97
2022-12-31T23:33:19.157Z,67.10
2022-12-31T23:36:41.109Z,61.72
2022-12-31T23:40:03.095Z,58.20
2022-12-31T23:43:25.013Z,29.08
2022-12-31T23:46:47.106Z,23.42
2022-12-31T23:50:09.254Z,21.65
2022-12-31T23:53:31.487Z,19.33
2022-12-31T23:56:53.629Z,17.42
